Time;durP1;ratioP1;P1;durP2;ratioP2;P2;SDS_P1;SDS_P2;PMS_P1;PMS_P2;Temp;Humidity;BMP_temperature;BMP_pressure;BME280_temperature;BME280_humidity;BME280_pressure;Samples;Min_cycle;Max_cycle;Signal;HPM_P1;HPM_P2
2022/04/18 00:00:27;;;;;;;8.82;4.65;;;;;;;5.81;65.01;101872.03;5075193;28;20028;-88
2022/04/18 00:02:53;;;;;;;7.73;5.40;;;;;;;5.91;65.57;101885.75;5075941;28;20020;-88
2022/04/18 00:05:18;;;;;;;7.53;4.90;;;;;;;5.79;65.20;101866.09;5076048;28;20039;-88
2022/04/18 00:07:44;;;;;;;12.30;5.20;;;;;;;5.84;64.19;101874.25;5075982;28;20032;-88
2022/04/18 00:10:19;;;;;;;7.80;4.70;;;;;;;5.72;64.53;101860.75;5075181;28;20042;-88
2022/04/18 00:13:09;;;;;;;6.85;4.57;;;;;;;5.68;64.51;101856.84;5075603;28;20048;-88
2022/04/18 00:15:42;;;;;;;8.02;4.50;;;;;;;5.59;64.54;101852.69;5074708;28;20047;-88
2022/04/18 00:18:14;;;;;;;6.80;4.45;;;;;;;5.56;63.36;101847.81;5057313;28;20029;-88
2022/04/18 00:20:47;;;;;;;8.43;4.30;;;;;;;5.51;63.47;101853.69;5057473;28;20487;-88
2022/04/18 00:23:13;;;;;;;8.35;4.55;;;;;;;5.54;64.83;101860.47;5057038;28;20021;-89
2022/04/18 00:25:44;;;;;;;7.87;4.40;;;;;;;5.55;64.95;101862.13;5074895;28;20025;-88
2022/04/18 00:28:10;;;;;;;6.70;4.28;;;;;;;5.51;64.82;101859.00;5074674;28;20044;-88
2022/04/18 00:30:53;;;;;;;6.53;4.20;;;;;;;5.59;63.66;101871.31;5074828;28;20060;-88
2022/04/18 00:33:25;;;;;;;6.60;4.20;;;;;;;5.51;63.00;101853.69;5057442;28;20024;-88
2022/04/18 00:35:57;;;;;;;5.57;3.60;;;;;;;5.67;62.23;101862.34;5075399;28;20515;-88
2022/04/18 00:38:29;;;;;;;8.73;3.83;;;;;;;5.68;61.26;101848.03;5075331;28;20028;-88
2022/04/18 00:40:55;;;;;;;7.80;3.67;;;;;;;5.80;61.67;101862.41;5074975;28;20382;-88
2022/04/18 00:43:49;;;;;;;6.40;4.20;;;;;;;5.81;61.54;101868.53;5074893;28;20124;-88
2022/04/18 00:46:19;;;;;;;6.57;3.55;;;;;;;5.72;60.81;101871.38;5056692;28;20041;-88
2022/04/18 00:48:50;;;;;;;7.78;3.90;;;;;;;5.50;60.99;101851.25;5040196;28;20037;-88
2022/04/18 00:51:44;;;;;;;5.82;3.65;;;;;;;5.55;61.36;101868.25;5074868;28;20035;-88
2022/04/18 00:54:49;;;;;;;5.82;3.17;;;;;;;5.36;62.19;101845.88;5074139;28;20240;-88
2022/04/18 00:57:25;;;;;;;5.68;3.53;;;;;;;5.34;62.20;101852.41;5032945;28;20090;-88
2022/04/18 00:59:50;;;;;;;7.03;3.75;;;;;;;5.30;62.92;101860.75;5074531;28;20403;-88
2022/04/18 01:02:19;;;;;;;4.87;3.40;;;;;;;5.15;63.35;101842.31;5074674;28;20073;-89
2022/04/18 01:04:45;;;;;;;6.38;3.70;;;;;;;5.11;63.77;101849.03;5049463;28;20033;-89
2022/04/18 01:07:12;;;;;;;4.00;3.15;;;;;;;5.16;64.36;101869.69;5072561;28;20600;-88
2022/04/18 01:09:38;;;;;;;4.77;3.20;;;;;;;5.08;64.45;101848.59;5072173;28;20108;-88
2022/04/18 01:12:03;;;;;;;9.77;3.00;;;;;;;5.00;64.07;101855.69;5054387;28;20294;-87
2022/04/18 01:14:29;;;;;;;4.20;2.92;;;;;;;4.94;62.53;101853.00;5072143;28;20060;-87
2022/04/18 01:16:54;;;;;;;5.93;3.40;;;;;;;4.90;63.34;101852.59;5072855;28;20386;-87
2022/04/18 01:19:19;;;;;;;4.70;3.00;;;;;;;4.84;62.76;101853.34;5071086;28;20040;-88
2022/04/18 01:21:44;;;;;;;6.97;3.00;;;;;;;4.83;63.07;101857.03;5072573;28;20161;-87
2022/04/18 01:29:39;;;;;;;4.10;3.05;;;;;;;4.61;65.86;101849.09;5071927;28;20039;-89
2022/04/18 01:32:05;;;;;;;4.63;3.07;;;;;;;4.57;65.90;101855.78;5072217;28;20020;-88
2022/04/18 01:34:31;;;;;;;5.30;3.60;;;;;;;4.54;66.10;101856.22;5071919;28;20442;-89
2022/04/18 01:36:56;;;;;;;5.50;3.50;;;;;;;4.47;66.67;101860.63;5073075;28;20035;-88
2022/04/18 01:39:21;;;;;;;5.47;4.03;;;;;;;4.43;67.38;101851.41;5071374;28;20020;-88
2022/04/18 01:41:47;;;;;;;5.57;3.50;;;;;;;4.40;67.63;101848.09;5072262;28;20472;-88
2022/04/18 01:44:12;;;;;;;6.70;3.70;;;;;;;4.36;67.35;101851.34;5071318;28;20016;-88
2022/04/18 01:46:37;;;;;;;5.67;3.30;;;;;;;4.35;67.63;101858.50;5071755;28;20020;-88
2022/04/18 01:49:04;;;;;;;6.03;3.43;;;;;;;4.33;68.13;101852.56;5070831;28;20032;-89
2022/04/18 01:51:29;;;;;;;5.80;3.60;;;;;;;4.24;68.13;101848.38;5071467;28;20028;-89
2022/04/18 01:53:55;;;;;;;6.17;3.60;;;;;;;4.22;68.17;101848.56;5071632;28;20027;-89
2022/04/18 01:56:20;;;;;;;6.80;3.50;;;;;;;4.17;68.35;101836.91;5071359;28;20491;-88
2022/04/18 01:58:45;;;;;;;7.13;3.77;;;;;;;4.17;68.34;101843.00;5071197;28;20107;-89
2022/04/18 02:01:11;;;;;;;6.82;3.60;;;;;;;4.14;68.34;101838.06;5071394;28;20456;-88
2022/04/18 02:03:40;;;;;;;6.70;3.50;;;;;;;4.09;67.42;101830.69;5053683;28;20028;-89
2022/04/18 02:06:06;;;;;;;7.03;3.15;;;;;;;4.12;68.62;101837.44;5070784;28;20035;-89
2022/04/18 02:08:31;;;;;;;5.07;3.57;;;;;;;4.12;68.19;101829.50;5071564;28;20428;-88
2022/04/18 02:10:57;;;;;;;4.77;3.47;;;;;;;4.10;67.46;101831.53;5070915;28;20029;-89
2022/04/18 02:13:24;;;;;;;4.38;3.03;;;;;;;4.06;67.53;101828.41;5069405;28;20028;-88
2022/04/18 02:15:50;;;;;;;7.43;3.25;;;;;;;4.01;67.85;101833.50;5071003;28;20028;-89
2022/04/18 02:18:15;;;;;;;8.93;3.30;;;;;;;3.93;67.81;101831.75;5070769;28;20035;-89
2022/04/18 02:20:40;;;;;;;5.47;3.30;;;;;;;3.84;68.05;101829.41;5052788;28;20039;-89
2022/04/18 02:23:06;;;;;;;7.32;2.95;;;;;;;3.73;69.12;101828.09;5053031;28;20114;-88
2022/04/18 02:25:32;;;;;;;6.40;3.20;;;;;;;3.67;69.05;101831.50;5071122;28;20025;-89
2022/04/18 02:27:58;;;;;;;5.45;3.30;;;;;;;3.60;69.13;101826.91;5071030;28;20029;-89
2022/04/18 02:30:23;;;;;;;5.07;3.10;;;;;;;3.57;69.43;101823.84;5070351;28;20115;-88
2022/04/18 02:32:48;;;;;;;6.63;3.33;;;;;;;3.52;70.74;101823.56;5070918;28;20039;-88
2022/04/18 02:35:15;;;;;;;5.57;3.38;;;;;;;3.53;70.75;101822.56;5070435;28;20036;-89
2022/04/18 02:37:41;;;;;;;5.93;3.50;;;;;;;3.54;70.92;101826.84;5070943;28;20036;-89
2022/04/18 02:40:07;;;;;;;5.33;3.40;;;;;;;3.53;71.14;101822.56;5070346;28;20035;-89
2022/04/18 02:42:32;;;;;;;7.75;3.45;;;;;;;3.49;70.92;101811.50;5069422;28;20016;-88
2022/04/18 02:44:58;;;;;;;5.43;3.30;;;;;;;3.49;71.64;101820.28;5070762;28;20024;-88
2022/04/18 02:47:23;;;;;;;6.90;3.40;;;;;;;3.45;71.45;101813.72;5052124;28;20090;-88
2022/04/18 02:49:50;;;;;;;8.13;3.70;;;;;;;3.41;71.46;101812.44;5069215;28;20029;-89
2022/04/18 02:52:16;;;;;;;7.00;3.80;;;;;;;3.39;71.69;101808.31;5052398;28;20100;-88
2022/04/18 02:54:42;;;;;;;6.65;3.60;;;;;;;3.32;72.35;101803.78;5071022;28;20059;-89
2022/04/18 02:57:07;;;;;;;6.07;3.50;;;;;;;3.30;71.97;101810.25;5070534;28;20064;-88
2022/04/18 02:59:33;;;;;;;4.85;3.67;;;;;;;3.26;72.02;101803.69;5070640;28;20372;-89
2022/04/18 03:01:58;;;;;;;5.43;3.53;;;;;;;3.20;73.03;101801.78;5071018;28;20067;-89
2022/04/18 03:04:23;;;;;;;7.00;3.50;;;;;;;3.15;72.39;101800.50;5052546;28;20102;-89
2022/04/18 03:06:48;;;;;;;7.10;3.30;;;;;;;3.16;72.65;101798.69;5071482;28;20048;-89
2022/04/18 03:09:15;;;;;;;5.88;3.70;;;;;;;3.11;73.22;101787.81;5070222;28;20040;-89
2022/04/18 03:11:40;;;;;;;9.03;3.67;;;;;;;3.15;73.28;101787.25;5071147;28;20025;-89
2022/04/18 03:14:06;;;;;;;5.13;3.67;;;;;;;3.15;73.93;101792.56;5072641;28;20036;-89
2022/04/18 03:16:31;;;;;;;5.80;3.83;;;;;;;3.16;73.06;101785.44;5073705;28;20132;-88
2022/04/18 03:18:56;;;;;;;5.87;3.33;;;;;;;3.15;73.26;101792.56;5072971;28;20035;-88
2022/04/18 03:21:22;;;;;;;7.57;3.63;;;;;;;3.11;73.25;101780.69;5055189;28;20475;-87
2022/04/18 03:23:47;;;;;;;6.18;3.40;;;;;;;3.02;73.37;101792.38;5070303;28;20048;-88
2022/04/18 03:26:13;;;;;;;6.27;3.50;;;;;;;2.90;73.54;101791.22;5071753;28;20028;-88
2022/04/18 03:28:38;;;;;;;6.77;3.33;;;;;;;2.87;74.24;101787.09;5071660;28;20029;-87
2022/04/18 03:31:03;;;;;;;5.85;3.47;;;;;;;2.80;74.46;101794.94;5053457;28;20025;-89
2022/04/18 03:33:29;;;;;;;6.20;3.63;;;;;;;2.77;74.68;101784.72;5071644;28;20035;-88
2022/04/18 03:41:22;;;;;;;5.75;3.30;;;;;;;2.66;75.07;101799.22;5055627;28;20127;-88
2022/04/18 03:43:47;;;;;;;6.77;3.40;;;;;;;2.60;75.21;101788.53;5071326;28;20128;-88
2022/04/18 03:46:12;;;;;;;5.27;3.57;;;;;;;2.61;75.50;101792.81;5070366;28;20118;-89
2022/04/18 03:48:38;;;;;;;9.03;3.67;;;;;;;2.61;75.33;101796.31;5070083;28;20028;-88
2022/04/18 03:51:03;;;;;;;5.10;3.67;;;;;;;2.56;75.45;101796.81;5070341;28;20395;-89
2022/04/18 03:53:29;;;;;;;6.00;3.40;;;;;;;2.51;75.69;101790.44;5052363;28;20032;-89
2022/04/18 03:55:55;;;;;;;7.20;3.30;;;;;;;2.46;75.43;101790.97;5069995;28;20275;-89
2022/04/18 03:58:20;;;;;;;5.40;3.15;;;;;;;2.38;75.59;101791.03;5070032;28;20028;-89
2022/04/18 04:00:45;;;;;;;6.63;3.23;;;;;;;2.34;76.11;101790.59;5052008;28;20117;-89
2022/04/18 04:03:11;;;;;;;6.20;3.40;;;;;;;2.29;76.27;101784.19;5070254;28;20044;-88
2022/04/18 04:05:40;;;;;;;5.47;3.33;;;;;;;2.29;76.35;101789.47;5070420;28;20439;-88
2022/04/18 04:08:06;;;;;;;4.22;3.03;;;;;;;2.22;76.48;101782.25;5070354;28;20082;-88
2022/04/18 04:10:31;;;;;;;6.03;3.58;;;;;;;2.20;76.32;101781.59;5069849;28;20028;-88
2022/04/18 04:12:57;;;;;;;7.73;3.40;;;;;;;2.12;76.43;101785.13;5052564;28;20395;-88
2022/04/18 04:15:22;;;;;;;6.37;3.27;;;;;;;2.10;76.68;101778.41;5069919;28;20032;-88
2022/04/18 04:17:47;;;;;;;5.60;3.57;;;;;;;2.07;76.84;101776.09;5069037;28;20020;-89
2022/04/18 04:20:12;;;;;;;4.18;3.25;;;;;;;2.02;77.73;101776.63;5069630;28;20035;-88
2022/04/18 04:22:43;;;;;;;6.13;3.37;;;;;;;2.02;77.67;101781.09;5069847;28;20032;-88
2022/04/18 04:25:08;;;;;;;5.93;3.10;;;;;;;1.95;77.87;101784.47;5069594;28;20074;-88
2022/04/18 04:27:33;;;;;;;6.83;3.40;;;;;;;2.01;77.99;101784.75;5069970;28;20278;-89
2022/04/18 04:29:59;;;;;;;5.47;2.90;;;;;;;2.00;78.05;101780.47;5071417;28;20032;-89
2022/04/18 04:32:24;;;;;;;5.23;3.10;;;;;;;2.01;78.25;101780.28;5073333;28;20081;-89
2022/04/18 04:34:51;;;;;;;4.13;3.07;;;;;;;2.02;77.71;101791.66;5073969;28;20036;-89
2022/04/18 04:37:17;;;;;;;5.88;3.13;;;;;;;2.01;78.10;101784.75;5073056;28;20029;-89
2022/04/18 04:39:42;;;;;;;7.90;3.58;;;;;;;1.99;78.29;101782.28;5072633;28;20052;-88
2022/04/18 04:42:08;;;;;;;5.10;3.20;;;;;;;1.96;78.23;101783.47;5072860;28;20113;-89
2022/04/18 04:44:33;;;;;;;3.90;3.10;;;;;;;1.96;78.35;101778.19;5073203;28;20043;-88
2022/04/18 04:46:59;;;;;;;7.15;3.22;;;;;;;1.97;78.43;101781.63;5073039;28;20463;-88
2022/04/18 04:49:24;;;;;;;8.23;3.20;;;;;;;1.96;78.00;101783.47;5072034;28;20173;-89
2022/04/18 04:51:49;;;;;;;6.67;3.27;;;;;;;1.92;77.78;101787.44;5054630;28;20036;-89
2022/04/18 04:54:15;;;;;;;6.77;2.67;;;;;;;1.87;78.20;101789.78;5072396;28;20070;-89
2022/04/18 04:56:40;;;;;;;4.17;3.17;;;;;;;1.79;78.33;101787.22;5073004;28;20429;-89
2022/04/18 04:59:05;;;;;;;7.68;3.55;;;;;;;1.77;78.69;101794.50;5072466;28;20035;-90
2022/04/18 05:01:30;;;;;;;6.70;3.17;;;;;;;1.84;78.66;101794.63;5073656;28;20025;-90
2022/04/18 05:03:56;;;;;;;6.70;3.13;;;;;;;1.88;78.72;101794.09;5072838;28;20025;-90
2022/04/18 05:06:21;;;;;;;6.03;3.37;;;;;;;1.99;78.94;101792.03;5072909;28;20044;-90
2022/04/18 05:08:46;;;;;;;7.57;3.80;;;;;;;2.08;78.05;101796.25;5072394;28;20480;-90
2022/04/18 05:11:12;;;;;;;6.23;2.93;;;;;;;2.14;78.08;101800.00;5054977;28;20032;-90
2022/04/18 05:13:37;;;;;;;5.10;3.53;;;;;;;2.22;77.72;101792.84;5074495;28;20399;-90
2022/04/18 05:16:03;;;;;;;8.50;3.17;;;;;;;2.26;77.88;101794.13;5074213;28;20476;-90
2022/04/18 05:18:28;;;;;;;4.60;3.00;;;;;;;2.30;78.00;101797.22;5074583;28;20037;-90
2022/04/18 05:20:53;;;;;;;6.97;3.20;;;;;;;2.32;78.03;101800.53;5073402;28;20103;-90
2022/04/18 05:23:20;;;;;;;5.07;3.33;;;;;;;2.36;78.00;101799.16;5073320;28;20028;-90
2022/04/18 05:25:45;;;;;;;5.87;3.40;;;;;;;2.34;78.12;101797.72;5072051;28;20509;-90
2022/04/18 05:28:13;;;;;;;6.43;3.60;;;;;;;2.45;78.25;101796.47;5072685;28;20314;-89
2022/04/18 05:30:39;;;;;;;5.38;3.33;;;;;;;2.53;77.79;101791.91;5072621;28;20043;-90
2022/04/18 05:33:05;;;;;;;5.43;3.38;;;;;;;2.73;77.13;101804.63;5072250;28;20636;-89
2022/04/18 05:35:31;;;;;;;6.18;3.80;;;;;;;2.92;76.70;101805.09;5072487;28;20476;-89
2022/04/18 05:37:56;;;;;;;7.07;3.90;;;;;;;3.09;76.27;101811.00;5054457;28;20074;-89
2022/04/18 05:40:21;;;;;;;7.70;3.67;;;;;;;3.16;75.47;101798.69;5071181;28;20027;-89
2022/04/18 05:42:46;;;;;;;4.17;3.27;;;;;;;3.29;74.44;101805.94;5072635;28;20369;-89
2022/04/18 05:45:12;;;;;;;7.37;3.40;;;;;;;3.43;74.30;101802.47;5071846;28;20025;-89
2022/04/18 05:47:40;;;;;;;7.93;3.50;;;;;;;3.61;73.25;101803.91;5072261;28;20022;-89
2022/04/18 05:50:06;;;;;;;5.80;3.38;;;;;;;3.81;72.43;101798.81;5071177;28;20029;-90
2022/04/18 05:52:32;;;;;;;5.45;3.15;;;;;;;3.95;71.92;101797.09;5072204;28;20025;-89
2022/04/18 05:54:57;;;;;;;5.27;3.17;;;;;;;4.11;70.85;101800.50;5071510;28;20487;-89
2022/04/18 05:57:23;;;;;;;5.60;3.40;;;;;;;4.37;69.73;101797.25;5071887;28;20770;-89
2022/04/18 05:59:48;;;;;;;4.80;3.00;;;;;;;4.52;69.37;101799.81;5071926;28;20032;-89
2022/04/18 06:02:15;;;;;;;8.23;3.00;;;;;;;4.62;69.07;101796.84;5071777;28;20036;-89
2022/04/18 06:04:40;;;;;;;3.40;2.95;;;;;;;4.75;68.10;101802.22;5054607;28;20021;-89
2022/04/18 06:07:08;;;;;;;5.00;3.20;;;;;;;4.91;68.01;101802.91;5072188;28;20032;-88
2022/04/18 06:09:33;;;;;;;6.20;3.25;;;;;;;5.15;66.69;101804.28;5071152;28;20115;-89
2022/04/18 06:11:59;;;;;;;6.40;2.80;;;;;;;5.27;66.67;101816.00;5076644;28;20071;-89
2022/04/18 06:14:24;;;;;;;6.30;3.00;;;;;;;5.47;65.40;101815.25;5083321;28;20090;-88
2022/04/18 06:16:49;;;;;;;6.57;3.13;;;;;;;5.63;64.64;101814.06;5094120;28;20067;-88
2022/04/18 06:19:15;;;;;;;6.47;3.13;;;;;;;5.75;63.85;101820.44;5093823;28;20009;-89
2022/04/18 06:21:41;;;;;;;5.23;3.10;;;;;;;5.91;63.47;101811.25;5094368;28;20021;-88
2022/04/18 06:24:07;;;;;;;9.82;3.20;;;;;;;6.04;62.17;101805.19;5074641;28;20020;-89
2022/04/18 06:26:32;;;;;;;4.87;3.00;;;;;;;6.26;61.89;101818.31;5072703;28;20066;-89
2022/04/18 06:28:58;;;;;;;5.47;2.77;;;;;;;6.35;61.30;101818.91;5072054;28;20086;-90
2022/04/18 06:31:24;;;;;;;8.17;3.47;;;;;;;6.46;61.98;101820.16;5071754;28;20348;-90
2022/04/18 06:33:49;;;;;;;7.25;3.40;;;;;;;6.63;60.85;101820.53;5053750;28;20439;-90
2022/04/18 06:36:16;;;;;;;6.90;3.20;;;;;;;6.79;59.91;101817.41;5071954;28;20052;-91
2022/04/18 06:38:46;;;;;;;5.63;2.92;;;;;;;6.96;59.44;101816.97;5070766;28;20024;-90
2022/04/18 06:41:11;;;;;;;10.93;3.38;;;;;;;7.07;59.54;101819.00;5069599;28;20059;-90
2022/04/18 06:43:37;;;;;;;3.60;3.03;;;;;;;7.21;59.16;101813.63;5070770;28;20396;-89
2022/04/18 06:46:02;;;;;;;5.63;3.07;;;;;;;7.28;58.64;101809.91;5070768;28;20120;-89
2022/04/18 06:48:27;;;;;;;7.00;2.93;;;;;;;7.39;57.81;101816.44;5071057;28;20115;-89
2022/04/18 06:50:53;;;;;;;5.97;3.03;;;;;;;7.43;58.53;101811.47;5070455;28;20074;-89
2022/04/18 06:53:19;;;;;;;6.82;3.17;;;;;;;7.50;59.28;101816.78;5070117;28;20439;-89
2022/04/18 06:58:29;;;;;;;3.35;3.05;;;;;;;7.79;58.23;101812.72;5071801;28;20036;-89
2022/04/18 07:00:54;;;;;;;5.20;3.08;;;;;;;7.98;57.20;101808.31;5053267;28;20044;-90
2022/04/18 07:03:22;;;;;;;4.27;3.00;;;;;;;8.13;56.42;101807.16;5071553;28;20498;-90
2022/04/18 07:05:48;;;;;;;9.32;2.55;;;;;;;8.23;55.56;101809.34;5071710;28;20478;-90
2022/04/18 07:08:13;;;;;;;7.78;3.28;;;;;;;8.36;55.75;101814.56;5074150;28;20067;-90
2022/04/18 07:10:38;;;;;;;5.27;2.60;;;;;;;8.47;54.70;101810.38;5060323;28;20029;-91
2022/04/18 07:13:04;;;;;;;5.00;2.90;;;;;;;8.55;55.50;101817.31;5078127;28;20021;-90
2022/04/18 07:15:29;;;;;;;5.87;2.87;;;;;;;8.61;55.72;101805.75;5077588;28;20223;-90
2022/04/18 07:17:55;;;;;;;3.67;2.72;;;;;;;8.71;54.63;101815.94;5076611;28;20031;-90
2022/04/18 07:20:20;;;;;;;4.10;2.43;;;;;;;8.80;54.49;101814.59;5073679;28;20342;-90
2022/04/18 07:22:46;;;;;;;2.97;2.53;;;;;;;8.83;54.12;101818.72;5072538;28;20023;-91
2022/04/18 07:25:11;;;;;;;7.10;2.67;;;;;;;8.90;53.20;101814.09;5071567;28;20030;-90
2022/04/18 07:27:37;;;;;;;3.80;2.50;;;;;;;9.07;53.55;101808.97;5071437;28;20024;-90
2022/04/18 07:30:03;;;;;;;5.30;2.80;;;;;;;9.27;53.28;101814.09;5053693;28;20494;-90
2022/04/18 07:32:28;;;;;;;6.25;2.60;;;;;;;9.52;56.07;101815.84;5071067;28;20056;-91
2022/04/18 07:34:54;;;;;;;3.20;2.63;;;;;;;9.64;52.20;101811.34;5070618;28;20044;-91
2022/04/18 07:37:20;;;;;;;4.60;2.37;;;;;;;9.80;51.27;101809.06;5070657;28;20029;-91
2022/04/18 07:39:45;;;;;;;4.63;2.60;;;;;;;9.86;50.92;101805.47;5052006;28;20021;-91
2022/04/18 07:42:10;;;;;;;5.37;2.30;;;;;;;9.93;50.37;101806.22;5070500;28;20032;-91
2022/04/18 07:44:37;;;;;;;4.03;2.60;;;;;;;10.03;49.81;101800.28;5070895;28;20365;-91
2022/04/18 07:47:04;;;;;;;6.65;2.42;;;;;;;10.28;49.35;101812.66;5070805;28;20047;-90
2022/04/18 07:49:29;;;;;;;5.10;2.07;;;;;;;10.42;48.88;101807.94;5070734;28;20149;-90
2022/04/18 07:51:55;;;;;;;4.17;2.50;;;;;;;10.50;47.69;101794.16;5071449;28;20280;-90
2022/04/18 07:54:20;;;;;;;3.87;2.40;;;;;;;10.66;46.33;101798.00;5070710;28;20561;-90
2022/04/18 07:56:46;;;;;;;3.97;2.50;;;;;;;10.91;46.51;101791.56;5071576;28;20028;-90
2022/04/18 07:59:12;;;;;;;6.63;2.78;;;;;;;11.03;46.36;101787.00;5070247;28;20025;-90
2022/04/18 08:01:45;;;;;;;4.97;2.50;;;;;;;11.22;46.09;101792.19;5071551;28;20031;-90
2022/04/18 08:04:11;;;;;;;4.93;2.53;;;;;;;11.49;46.73;101791.63;5071355;28;20029;-90
2022/04/18 08:06:39;;;;;;;5.67;2.50;;;;;;;11.64;46.47;101791.91;5074989;28;20103;-90
2022/04/18 08:09:05;;;;;;;3.53;2.33;;;;;;;11.75;45.44;101792.06;5074259;28;20813;-90
2022/04/18 08:11:30;;;;;;;3.38;2.20;;;;;;;12.00;43.04;101791.72;5074965;28;20111;-90
2022/04/18 08:13:56;;;;;;;5.77;2.40;;;;;;;12.06;44.21;101774.63;5075025;28;20433;-91
2022/04/18 08:16:21;;;;;;;4.33;2.30;;;;;;;12.20;43.53;101785.88;5056305;28;20031;-90
2022/04/18 08:18:55;;;;;;;4.43;2.70;;;;;;;12.43;42.88;101794.78;5074202;28;20074;-90
2022/04/18 08:21:23;;;;;;;4.72;2.40;;;;;;;12.60;41.44;101789.41;5076340;28;20433;-90
2022/04/18 08:23:52;;;;;;;6.57;2.40;;;;;;;12.77;41.69;101789.38;5075401;28;20028;-91
2022/04/18 08:26:19;;;;;;;3.53;2.30;;;;;;;13.00;41.01;101791.00;5075703;28;20447;-91
2022/04/18 08:28:45;;;;;;;3.05;2.20;;;;;;;13.17;40.20;101793.59;5076120;28;20020;-91
2022/04/18 08:31:10;;;;;;;6.90;2.30;;;;;;;13.38;40.45;101803.81;5074473;28;20028;-91
2022/04/18 08:33:36;;;;;;;3.00;2.10;;;;;;;13.53;40.27;101801.28;5076287;28;20071;-91
2022/04/18 08:36:01;;;;;;;4.63;2.70;;;;;;;13.65;38.70;101801.16;5075830;28;20753;-91
2022/04/18 08:38:27;;;;;;;3.85;2.47;;;;;;;13.71;39.14;101789.34;5075675;28;20033;-91
2022/04/18 08:40:57;;;;;;;3.47;2.13;;;;;;;13.91;37.27;101788.72;5078839;28;20029;-92
2022/04/18 08:43:23;;;;;;;8.00;2.50;;;;;;;14.09;37.45;101794.78;5073998;28;20028;-91
2022/04/18 08:45:49;;;;;;;4.95;2.35;;;;;;;14.22;38.41;101788.16;5094042;28;20050;-91
2022/04/18 08:53:45;;;;;;;4.13;2.27;;;;;;;14.71;36.60;101794.38;5094761;28;20027;-91
2022/04/18 08:56:11;;;;;;;4.20;2.10;;;;;;;14.81;36.50;101789.84;5094278;28;20306;-91
2022/04/18 08:58:36;;;;;;;3.83;2.37;;;;;;;14.92;35.73;101796.13;5088001;28;20084;-90
2022/04/18 09:01:20;;;;;;;5.00;2.60;;;;;;;14.97;37.04;101788.00;5075720;28;20101;-90
2022/04/18 09:03:45;;;;;;;5.85;2.25;;;;;;;15.18;35.93;101788.09;5074029;28;20031;-91
2022/04/18 09:06:13;;;;;;;3.23;2.23;;;;;;;15.32;36.14;101791.09;5056956;28;20024;-91
2022/04/18 09:08:46;;;;;;;4.87;2.40;;;;;;;15.37;35.71;101790.31;5079717;28;20297;-91
2022/04/18 09:11:28;;;;;;;3.00;2.20;;;;;;;15.47;35.04;101790.34;5077252;28;20115;-91
2022/04/18 09:14:15;;;;;;;2.85;2.20;;;;;;;15.62;36.09;101792.22;5073521;28;20479;-91
2022/04/18 09:16:42;;;;;;;2.35;2.08;;;;;;;15.66;34.46;101785.22;5055076;28;20522;-90
2022/04/18 09:19:12;;;;;;;5.07;2.30;;;;;;;15.83;32.79;101779.56;5071589;28;20476;-90
2022/04/18 09:21:57;;;;;;;3.22;2.33;;;;;;;15.97;33.81;101789.84;5072826;28;20032;-91
2022/04/18 09:24:46;;;;;;;4.03;2.40;;;;;;;16.09;34.38;101784.97;5054705;28;20028;-90
2022/04/18 09:27:23;;;;;;;4.15;2.20;;;;;;;16.35;33.90;101784.94;5072433;28;20035;-91
2022/04/18 09:30:10;;;;;;;2.40;1.80;;;;;;;16.49;33.53;101783.28;5073487;28;20074;-90
2022/04/18 09:32:40;;;;;;;4.07;2.03;;;;;;;16.56;32.11;101779.50;5072902;28;20028;-91
2022/04/18 09:35:06;;;;;;;3.77;2.40;;;;;;;16.64;32.78;101785.16;5056954;28;20275;-90
2022/04/18 09:37:33;;;;;;;2.85;2.30;;;;;;;16.66;31.08;101768.63;5085725;28;20101;-89
2022/04/18 09:39:58;;;;;;;3.20;2.10;;;;;;;16.81;31.82;101768.56;5069788;28;20418;-90
2022/04/18 09:42:29;;;;;;;2.97;2.30;;;;;;;17.00;31.22;101775.28;5088811;28;20017;-91
2022/04/18 09:44:55;;;;;;;5.70;2.37;;;;;;;17.09;32.28;101769.03;5086123;28;20274;-90
2022/04/18 09:47:42;;;;;;;5.43;2.47;;;;;;;17.09;30.93;101768.19;5072559;28;20027;-91
2022/04/18 09:53:33;;;;;;;3.38;2.10;;;;;;;17.17;29.40;101759.50;4991562;28;20044;-91
2022/04/18 09:56:07;;;;;;;2.58;2.20;;;;;;;17.35;31.83;101755.31;4991834;28;20117;-91
2022/04/18 09:58:34;;;;;;;4.65;2.20;;;;;;;17.36;30.07;101751.50;4991896;28;20034;-91
2022/04/18 10:01:39;;;;;;;;;;;;;;;;;;;;;
2022/04/18 10:04:07;;;;;;;4.13;2.33;;;;;;;17.74;29.22;101761.00;5067802;28;20275;-91
2022/04/18 10:06:33;;;;;;;3.45;2.20;;;;;;;17.79;30.26;101745.53;5054878;28;20078;-91
2022/04/18 10:08:59;;;;;;;3.03;2.40;;;;;;;17.95;28.54;101740.75;5072041;28;20387;-91
2022/04/18 10:11:24;;;;;;;3.58;2.17;;;;;;;18.27;28.25;101742.09;5071991;28;20024;-92
2022/04/18 10:13:50;;;;;;;3.30;2.10;;;;;;;18.37;28.23;101745.78;5071630;28;20463;-91
2022/04/18 10:16:17;;;;;;;3.63;2.50;;;;;;;18.48;27.62;101744.56;5053532;28;20185;-92
2022/04/18 10:18:54;;;;;;;2.67;2.35;;;;;;;18.48;27.91;101744.56;5071917;28;20048;-91
2022/04/18 10:21:30;;;;;;;2.63;2.15;;;;;;;18.65;28.92;101737.84;5071327;28;20447;-91
2022/04/18 10:24:31;;;;;;;3.92;2.30;;;;;;;18.87;27.92;101740.03;5071949;28;20067;-91
2022/04/18 10:27:05;;;;;;;5.18;2.53;;;;;;;18.78;27.89;101739.88;5062814;28;20040;-91
2022/04/18 10:29:33;;;;;;;3.63;2.58;;;;;;;18.75;26.40;101735.03;5071576;28;20414;-91
2022/04/18 10:32:03;;;;;;;5.13;2.67;;;;;;;18.72;27.81;101730.97;5072046;28;20518;-91
2022/04/18 10:34:31;;;;;;;3.83;2.80;;;;;;;18.71;26.55;101723.97;5071829;28;20281;-91
2022/04/18 10:36:59;;;;;;;3.10;2.75;;;;;;;18.74;27.20;101720.63;5071601;28;20016;-91
2022/04/18 10:39:37;;;;;;;4.10;2.60;;;;;;;18.77;28.83;101716.56;5071103;28;20029;-90
2022/04/18 10:42:33;;;;;;;4.28;2.50;;;;;;;18.86;28.97;101720.22;5070817;28;20036;-90
2022/04/18 10:45:02;;;;;;;3.78;2.72;;;;;;;18.86;27.28;101720.22;5069074;28;20040;-92
2022/04/18 10:47:57;;;;;;;3.63;2.40;;;;;;;18.96;27.23;101721.22;5053082;28;20024;-91
2022/04/18 10:50:29;;;;;;;2.83;2.47;;;;;;;18.87;27.69;101721.03;5061427;28;20124;-91
2022/04/18 10:53:17;;;;;;;5.60;2.60;;;;;;;18.85;28.20;101717.81;5071027;28;20082;-92
2022/04/18 10:55:54;;;;;;;2.80;2.50;;;;;;;18.80;27.70;101705.09;5070736;28;20028;-92
2022/04/18 10:58:25;;;;;;;4.67;2.50;;;;;;;18.90;27.05;101715.81;5070202;28;20471;-92
2022/04/18 11:00:55;;;;;;;3.77;2.27;;;;;;;18.92;26.68;101710.09;5070445;28;20676;-92
2022/04/18 11:03:40;;;;;;;3.17;2.45;;;;;;;19.12;28.21;101706.31;5053518;28;20107;-92
2022/04/18 11:06:09;;;;;;;4.75;2.40;;;;;;;19.05;26.93;101711.28;5072173;28;20024;-92
2022/04/18 11:08:38;;;;;;;3.20;2.50;;;;;;;18.80;28.01;101705.09;5072092;28;20171;-92
2022/04/18 11:11:15;;;;;;;3.47;2.47;;;;;;;18.98;27.68;101706.22;5072030;28;20024;-90
2022/04/18 11:13:50;;;;;;;3.00;2.70;;;;;;;18.98;27.16;101689.16;5071745;28;20028;-91
2022/04/18 11:16:24;;;;;;;4.93;2.90;;;;;;;19.05;27.25;101706.69;5072113;28;20085;-92
2022/04/18 11:19:16;;;;;;;3.47;2.83;;;;;;;19.12;26.84;101695.44;5070307;28;20017;-90
2022/04/18 11:21:58;;;;;;;4.57;3.00;;;;;;;19.35;26.74;101692.94;5042629;28;20029;-92
2022/04/18 11:24:58;;;;;;;3.07;2.30;;;;;;;19.36;26.46;101697.22;5055109;28;20060;-91
2022/04/18 11:27:26;;;;;;;3.07;2.10;;;;;;;19.59;26.68;101691.97;5052084;28;20341;-91
2022/04/18 11:29:56;;;;;;;3.38;2.33;;;;;;;19.71;26.40;101688.78;5055894;28;20094;-91
2022/04/18 11:32:25;;;;;;;4.95;2.83;;;;;;;19.72;25.24;101688.47;5051982;28;20037;-91
2022/04/18 11:34:52;;;;;;;3.92;2.88;;;;;;;19.65;25.28;101690.78;5052740;28;20032;-92
2022/04/18 11:37:31;;;;;;;6.82;2.85;;;;;;;19.83;25.86;101689.09;5051588;28;20033;-92
2022/04/18 11:39:59;;;;;;;4.75;3.00;;;;;;;20.01;26.58;101689.34;5054618;28;20099;-91
2022/04/18 11:42:29;;;;;;;4.47;3.10;;;;;;;20.00;25.19;101683.13;5056145;28;20040;-92
2022/04/18 11:44:57;;;;;;;5.55;3.25;;;;;;;20.03;25.36;101682.53;5055051;28;20112;-92
2022/04/18 11:47:27;;;;;;;3.88;3.38;;;;;;;20.09;25.28;101675.84;5055185;28;20025;-92
2022/04/18 11:50:04;;;;;;;3.10;2.80;;;;;;;20.18;25.44;101681.41;5054270;28;20025;-91
2022/04/18 11:52:31;;;;;;;4.27;3.70;;;;;;;20.16;24.50;101683.63;5054722;28;20329;-92
2022/04/18 11:55:14;;;;;;;5.95;3.30;;;;;;;20.37;27.34;101684.03;5054210;28;20021;-92
2022/04/18 11:57:44;;;;;;;3.85;3.30;;;;;;;20.28;24.84;101677.66;5054932;28;20024;-91
2022/04/18 12:00:14;;;;;;;5.68;3.50;;;;;;;20.44;25.13;101672.72;5036193;28;20032;-91